createdAt,value
2018-05-09T00:00:12.518Z,66.14
2018-05-09T00:02:41.019Z,66.60
2018-05-09T00:05:10.173Z,67.31
2018-05-09T00:07:38.628Z,67.50
2018-05-09T00:10:07.007Z,68.48
2018-05-09T00:12:35.403Z,68.15
2018-05-09T00:15:03.891Z,68.40
2018-05-09T00:17:32.287Z,68.87
2018-05-09T00:20:00.713Z,67.02
2018-05-09T00:22:29.091Z,66.72
2018-05-09T00:24:58.315Z,65.82
2018-05-09T00:27:26.719Z,66.58
2018-05-09T00:29:55.107Z,66.91
2018-05-09T00:32:23.610Z,67.43
2018-05-09T00:34:52.016Z,67.83
2018-05-09T00:37:20.725Z,68.54
2018-05-09T00:39:49.144Z,69.05
2018-05-09T00:42:17.582Z,69.56
2018-05-09T00:44:45.996Z,69.93
2018-05-09T00:47:14.414Z,70.76
2018-05-09T00:49:42.845Z,70.77
2018-05-09T00:52:12.087Z,71.29
2018-05-09T00:54:40.495Z,71.37
2018-05-09T00:57:10.466Z,70.31
2018-05-09T00:59:39.637Z,70.62
2018-05-09T01:02:08.050Z,70.13
2018-05-09T01:04:36.484Z,70.04
2018-05-09T01:07:05.010Z,70.00
2018-05-09T01:09:34.295Z,70.30
2018-05-09T01:12:02.722Z,70.47
2018-05-09T01:14:31.122Z,70.44
2018-05-09T01:16:59.651Z,71.87
2018-05-09T01:19:28.456Z,72.32
2018-05-09T01:21:58.517Z,72.41
2018-05-09T01:24:26.917Z,72.38
2018-05-09T01:26:55.522Z,72.51
2018-05-09T01:29:24.854Z,73.31
2018-05-09T01:31:53.327Z,73.39
2018-05-09T01:34:22.025Z,73.69
2018-05-09T01:36:54.545Z,74.11
2018-05-09T01:39:22.957Z,73.88
2018-05-09T01:41:51.406Z,74.60
2018-05-09T01:44:19.844Z,74.50
2018-05-09T01:46:49.603Z,74.69
2018-05-09T01:49:18.099Z,74.63
2018-05-09T01:51:46.514Z,75.19
2018-05-09T01:54:15.042Z,75.19
2018-05-09T01:56:45.777Z,75.23
2018-05-09T01:59:15.054Z,75.42
2018-05-09T02:01:43.554Z,75.69
2018-05-09T02:04:13.639Z,75.44
2018-05-09T02:06:43.103Z,75.59
2018-05-09T02:09:11.511Z,75.00
2018-05-09T02:11:40.014Z,74.79
2018-05-09T02:14:08.475Z,74.34
2018-05-09T02:16:36.923Z,73.87
2018-05-09T02:19:06.247Z,74.19
2018-05-09T02:21:35.024Z,74.12
2018-05-09T02:24:03.798Z,74.11
2018-05-09T02:26:32.945Z,74.18
2018-05-09T02:29:02.131Z,74.36
2018-05-09T02:31:34.152Z,74.52
2018-05-09T02:34:02.555Z,74.49
2018-05-09T02:36:30.947Z,74.55
2018-05-09T02:39:18.738Z,75.02
2018-05-09T02:41:47.934Z,75.27
2018-05-09T02:44:16.355Z,75.82
2018-05-09T02:46:46.270Z,75.69
2018-05-09T02:49:15.657Z,75.55
2018-05-09T02:51:44.124Z,74.93
2018-05-09T02:54:12.523Z,74.80
2018-05-09T02:56:40.951Z,74.71
2018-05-09T02:59:10.093Z,75.39
2018-05-09T03:01:39.516Z,75.82
2018-05-09T03:04:07.944Z,75.94
2018-05-09T03:06:36.651Z,76.21
2018-05-09T03:09:05.493Z,76.64
2018-05-09T03:11:34.298Z,76.97
2018-05-09T03:14:02.751Z,76.73
2018-05-09T03:16:31.182Z,76.72
2018-05-09T03:19:00.349Z,76.67
2018-05-09T03:21:28.766Z,76.21
2018-05-09T03:23:58.026Z,75.86
2018-05-09T03:26:27.203Z,76.64
2018-05-09T03:28:57.184Z,76.39
2018-05-09T03:31:26.353Z,77.17
2018-05-09T03:33:55.525Z,76.85
2018-05-09T03:36:24.001Z,77.15
2018-05-09T03:38:52.435Z,77.38
2018-05-09T03:41:21.342Z,77.66
2018-05-09T03:43:49.866Z,77.74
2018-05-09T03:46:18.292Z,77.94
2018-05-09T03:48:46.758Z,78.11
2018-05-09T03:51:15.223Z,78.47
2018-05-09T03:53:43.603Z,78.15
2018-05-09T03:56:12.944Z,78.78
2018-05-09T03:58:44.896Z,78.13
2018-05-09T04:01:14.239Z,77.99
2018-05-09T04:04:01.424Z,77.65
2018-05-09T04:06:47.546Z,77.51
2018-05-09T04:09:35.392Z,77.69
2018-05-09T04:12:03.748Z,76.96
2018-05-09T04:14:34.051Z,76.83
2018-05-09T04:17:02.466Z,75.26
2018-05-09T04:19:31.660Z,74.16
2018-05-09T04:22:01.119Z,73.46
2018-05-09T04:24:30.212Z,74.79
2018-05-09T04:26:58.671Z,74.50
2018-05-09T04:29:28.924Z,74.57
2018-05-09T04:31:57.406Z,74.91
2018-05-09T04:34:25.827Z,74.91
2018-05-09T04:36:54.458Z,75.78
2018-05-09T04:39:24.309Z,75.54
2018-05-09T04:41:52.766Z,75.67
2018-05-09T04:44:21.944Z,75.07
2018-05-09T04:46:51.152Z,74.53
2018-05-09T04:49:20.325Z,74.24
2018-05-09T04:51:48.713Z,72.32
2018-05-09T04:54:17.141Z,71.72
2018-05-09T04:56:45.533Z,70.51
2018-05-09T04:59:14.050Z,69.80
2018-05-09T05:01:42.542Z,70.26
2018-05-09T05:04:12.539Z,70.52
2018-05-09T05:06:40.941Z,71.14
2018-05-09T05:09:12.211Z,70.87
2018-05-09T05:11:40.746Z,70.78
2018-05-09T05:14:13.651Z,70.57
2018-05-09T05:16:43.021Z,71.15
2018-05-09T05:19:12.620Z,71.15
2018-05-09T05:21:42.729Z,71.07
2018-05-09T05:24:12.988Z,70.57
2018-05-09T05:26:44.458Z,69.20
2018-05-09T05:29:14.742Z,68.53
2018-05-09T05:31:44.079Z,67.49
2018-05-09T05:34:13.177Z,67.04
2018-05-09T05:36:43.115Z,67.32
2018-05-09T05:39:13.537Z,67.02
2018-05-09T05:41:43.498Z,66.56
2018-05-09T05:44:12.866Z,65.96
2018-05-09T05:46:43.766Z,66.19
2018-05-09T05:49:13.988Z,63.35
2018-05-09T05:51:43.883Z,60.02
2018-05-09T05:54:12.575Z,59.82
2018-05-09T05:56:42.541Z,60.02
2018-05-09T05:59:11.021Z,59.73
2018-05-09T06:01:39.935Z,61.42
2018-05-09T06:04:09.610Z,57.61
2018-05-09T06:06:39.957Z,57.51
2018-05-09T06:09:12.580Z,55.16
2018-05-09T06:11:42.550Z,55.21
2018-05-09T06:14:11.866Z,55.32
2018-05-09T06:16:40.246Z,55.24
2018-05-09T06:19:08.662Z,54.58
2018-05-09T06:21:37.287Z,55.20
2018-05-09T06:24:05.898Z,53.65
2018-05-09T06:26:36.339Z,54.04
2018-05-09T06:29:04.726Z,54.68
2018-05-09T06:31:33.162Z,51.32
2018-05-09T06:34:05.388Z,50.56
2018-05-09T06:36:33.877Z,49.85
2018-05-09T06:39:02.273Z,49.77
2018-05-09T06:41:31.078Z,49.28
2018-05-09T06:44:00.189Z,49.64
2018-05-09T06:46:28.580Z,47.56
2018-05-09T06:48:57.025Z,47.27
2018-05-09T06:51:25.432Z,47.10
2018-05-09T06:53:53.832Z,46.26
2018-05-09T06:56:22.411Z,45.99
2018-05-09T06:58:52.679Z,44.61
2018-05-09T07:01:21.137Z,43.69
2018-05-09T07:04:00.700Z,43.12
2018-05-09T07:06:29.279Z,45.47
2018-05-09T07:08:58.443Z,42.92
2018-05-09T07:11:27.903Z,40.36
2018-05-09T07:13:56.302Z,39.50
2018-05-09T07:16:25.867Z,38.96
2018-05-09T07:18:54.388Z,38.70
2018-05-09T07:21:22.797Z,36.43
2018-05-09T07:23:51.186Z,36.04
2018-05-09T07:26:19.593Z,38.45
2018-05-09T07:28:48.118Z,35.45
2018-05-09T07:31:16.586Z,33.95
2018-05-09T07:33:45.768Z,31.74
2018-05-09T07:36:14.186Z,33.34
2018-05-09T07:38:42.584Z,33.14
2018-05-09T07:41:11.013Z,34.22
2018-05-09T07:43:39.410Z,32.43
2018-05-09T07:46:07.811Z,30.09
2018-05-09T07:48:37.154Z,30.49
2018-05-09T07:51:05.627Z,30.55
2018-05-09T07:53:34.047Z,31.35
2018-05-09T07:56:02.455Z,31.30
2018-05-09T07:58:31.632Z,29.57
2018-05-09T08:01:00.036Z,30.44
2018-05-09T08:03:29.218Z,30.00
2018-05-09T08:05:57.674Z,31.37
2018-05-09T08:08:26.211Z,28.54
2018-05-09T08:10:55.384Z,29.11
2018-05-09T08:13:23.849Z,29.85
2018-05-09T08:15:52.786Z,31.00
2018-05-09T08:18:21.958Z,30.13
2018-05-09T08:20:50.666Z,29.82
2018-05-09T08:23:19.106Z,30.26
2018-05-09T08:25:47.508Z,29.12
2018-05-09T08:28:15.917Z,28.07
2018-05-09T08:30:44.322Z,29.63
2018-05-09T08:33:13.473Z,30.78
2018-05-09T08:35:41.967Z,30.72
2018-05-09T08:38:11.128Z,31.80
2018-05-09T08:40:39.621Z,29.43
2018-05-09T08:43:08.036Z,30.73
2018-05-09T08:45:36.457Z,27.72
2018-05-09T08:48:05.647Z,27.87
2018-05-09T08:50:34.082Z,29.15
2018-05-09T08:53:02.565Z,31.14
2018-05-09T08:55:30.999Z,28.34
2018-05-09T08:57:59.354Z,27.99
2018-05-09T09:00:28.650Z,28.61
2018-05-09T09:02:57.032Z,28.84
2018-05-09T09:05:25.444Z,26.92
2018-05-09T09:07:53.946Z,27.99
2018-05-09T09:10:22.343Z,26.44
2018-05-09T09:12:51.495Z,27.79
2018-05-09T09:15:19.904Z,25.97
2018-05-09T09:17:48.278Z,26.91
2018-05-09T09:20:16.673Z,26.54
2018-05-09T09:22:45.046Z,27.49
2018-05-09T09:25:14.942Z,27.42
2018-05-09T09:27:43.357Z,27.98
2018-05-09T09:30:11.739Z,29.28
2018-05-09T09:32:40.199Z,27.19
2018-05-09T09:35:08.572Z,26.65
2018-05-09T09:37:36.982Z,27.36
2018-05-09T09:40:05.387Z,25.85
2018-05-09T09:42:33.882Z,28.48
2018-05-09T09:45:03.059Z,26.83
2018-05-09T09:47:31.440Z,27.35
2018-05-09T09:49:59.826Z,26.08
2018-05-09T09:52:28.259Z,26.67
2018-05-09T09:54:56.684Z,26.81
2018-05-09T09:57:25.083Z,26.51
2018-05-09T09:59:53.455Z,25.38
2018-05-09T10:02:21.855Z,27.09
2018-05-09T10:04:50.275Z,26.73
2018-05-09T10:07:18.694Z,27.38
2018-05-09T10:09:47.097Z,26.74
2018-05-09T10:12:15.496Z,25.96
2018-05-09T10:14:44.702Z,26.76
2018-05-09T10:17:13.884Z,25.16
2018-05-09T10:19:42.403Z,28.66
2018-05-09T10:22:11.547Z,26.37
2018-05-09T10:24:40.730Z,25.52
2018-05-09T10:27:09.157Z,26.46
2018-05-09T10:29:37.572Z,25.31
2018-05-09T10:32:06.068Z,24.79
2018-05-09T10:34:34.462Z,26.90
2018-05-09T10:37:02.889Z,25.69
2018-05-09T10:39:31.268Z,23.36
2018-05-09T10:41:59.757Z,25.35
2018-05-09T10:44:28.146Z,25.28
2018-05-09T10:46:56.593Z,25.16
2018-05-09T10:49:24.970Z,26.51
2018-05-09T10:51:53.374Z,25.36
2018-05-09T10:54:22.506Z,25.08
2018-05-09T10:56:50.882Z,25.16
2018-05-09T10:59:19.282Z,24.65
2018-05-09T11:01:47.695Z,24.86
2018-05-09T11:04:16.127Z,26.51
2018-05-09T11:06:44.527Z,24.50
2018-05-09T11:09:13.682Z,26.32
2018-05-09T11:11:42.083Z,23.94
2018-05-09T11:14:10.486Z,25.26
2018-05-09T11:16:38.878Z,26.25
2018-05-09T11:19:08.035Z,24.16
2018-05-09T11:21:36.478Z,26.70
2018-05-09T11:24:05.696Z,22.86
2018-05-09T11:26:34.139Z,24.50
2018-05-09T11:29:02.533Z,27.20
2018-05-09T11:31:30.933Z,25.63
2018-05-09T11:34:00.883Z,25.98
2018-05-09T11:36:29.255Z,26.80
2018-05-09T11:38:57.634Z,24.78
2018-05-09T11:41:26.038Z,24.45
2018-05-09T11:43:54.406Z,26.48
2018-05-09T11:46:22.814Z,27.26
2018-05-09T11:48:51.188Z,23.34
2018-05-09T11:51:19.557Z,24.97
2018-05-09T11:53:47.977Z,23.33
2018-05-09T11:56:16.362Z,23.58
2018-05-09T11:58:44.762Z,24.48
2018-05-09T12:01:13.134Z,24.87
2018-05-09T12:03:41.525Z,26.28
2018-05-09T12:06:09.958Z,24.67
2018-05-09T12:08:38.334Z,23.76
2018-05-09T12:11:06.718Z,22.72
2018-05-09T12:13:35.085Z,22.60
2018-05-09T12:16:04.302Z,22.52
2018-05-09T12:18:32.679Z,25.06
2018-05-09T12:21:01.129Z,23.80
2018-05-09T12:23:29.511Z,24.40
2018-05-09T12:25:57.894Z,22.43
2018-05-09T12:28:26.322Z,22.12
2018-05-09T12:30:54.690Z,24.20
2018-05-09T12:33:23.080Z,23.67
2018-05-09T12:35:51.458Z,23.33
2018-05-09T12:38:19.882Z,24.10
2018-05-09T12:40:48.282Z,23.02
2018-05-09T12:43:16.723Z,24.19
2018-05-09T12:45:45.098Z,22.41
2018-05-09T12:48:13.581Z,23.28
2018-05-09T12:50:42.194Z,24.69
2018-05-09T12:53:10.610Z,22.83
2018-05-09T12:55:38.978Z,23.37
2018-05-09T12:58:07.349Z,22.84
2018-05-09T13:00:35.730Z,23.28
2018-05-09T13:03:04.093Z,22.62
2018-05-09T13:05:32.486Z,23.12
2018-05-09T13:08:00.873Z,22.75
2018-05-09T13:10:29.241Z,22.89
2018-05-09T13:12:57.666Z,23.16
2018-05-09T13:15:26.846Z,23.17
2018-05-09T13:17:55.241Z,23.29
2018-05-09T13:20:23.674Z,22.51
2018-05-09T13:22:52.841Z,22.02
2018-05-09T13:25:21.205Z,23.09
2018-05-09T13:27:49.590Z,22.73
2018-05-09T13:30:17.966Z,22.63
2018-05-09T13:32:46.361Z,23.77
2018-05-09T13:35:14.767Z,22.27
2018-05-09T13:37:43.141Z,23.65
2018-05-09T13:40:11.535Z,24.94
2018-05-09T13:42:39.899Z,24.06
2018-05-09T13:45:08.390Z,26.24
2018-05-09T13:47:36.787Z,26.84
2018-05-09T13:50:05.206Z,27.50
2018-05-09T13:52:33.700Z,24.74
2018-05-09T13:55:02.103Z,26.04
2018-05-09T13:57:30.621Z,26.49
2018-05-09T13:59:58.994Z,27.99
2018-05-09T14:02:27.367Z,25.77
2018-05-09T14:04:55.746Z,29.03
2018-05-09T14:07:24.122Z,29.98
2018-05-09T14:09:52.662Z,28.60
2018-05-09T14:12:20.983Z,29.33
2018-05-09T14:14:49.383Z,29.41
2018-05-09T14:17:17.798Z,30.50
2018-05-09T14:19:46.171Z,30.49
2018-05-09T14:22:14.529Z,30.69
2018-05-09T14:24:42.925Z,31.22
2018-05-09T14:27:11.355Z,30.86
2018-05-09T14:29:39.697Z,31.09
2018-05-09T14:32:08.099Z,30.39
2018-05-09T14:34:36.538Z,32.18
2018-05-09T14:37:04.929Z,32.01
2018-05-09T14:39:33.317Z,32.72
2018-05-09T14:42:01.707Z,33.70
2018-05-09T14:44:30.084Z,31.38
2018-05-09T14:46:58.487Z,31.08
2018-05-09T14:49:26.884Z,31.64
2018-05-09T14:51:55.250Z,31.72
2018-05-09T14:54:23.648Z,31.98
2018-05-09T14:56:52.033Z,32.07
2018-05-09T14:59:20.405Z,33.45
2018-05-09T15:01:48.799Z,33.27
2018-05-09T15:04:17.189Z,31.95
2018-05-09T15:06:46.371Z,33.22
2018-05-09T15:09:14.750Z,31.93
2018-05-09T15:11:43.217Z,31.66
2018-05-09T15:14:12.395Z,31.23
2018-05-09T15:16:40.781Z,33.21
2018-05-09T15:19:09.154Z,30.06
2018-05-09T15:21:37.517Z,28.24
2018-05-09T15:24:06.684Z,25.63
2018-05-09T15:26:35.067Z,24.98
2018-05-09T15:29:03.448Z,25.00
2018-05-09T15:31:31.865Z,23.75
2018-05-09T15:34:01.011Z,23.72
2018-05-09T15:36:29.421Z,23.69
2018-05-09T15:38:57.882Z,23.88
2018-05-09T15:41:26.161Z,23.13
2018-05-09T15:43:54.541Z,24.36
2018-05-09T15:46:22.964Z,25.27
2018-05-09T15:48:51.359Z,26.22
2018-05-09T15:51:20.495Z,25.49
2018-05-09T15:53:48.876Z,25.46
2018-05-09T15:56:17.291Z,26.39
2018-05-09T15:58:45.701Z,27.26
2018-05-09T16:01:14.072Z,26.97
2018-05-09T16:03:42.471Z,26.08
2018-05-09T16:06:10.837Z,26.23
2018-05-09T16:08:39.220Z,26.85
2018-05-09T16:11:07.602Z,27.74
2018-05-09T16:13:35.972Z,27.91
2018-05-09T16:16:04.402Z,26.71
2018-05-09T16:18:33.535Z,26.35
2018-05-09T16:21:02.825Z,27.11
2018-05-09T16:23:31.237Z,26.23
2018-05-09T16:25:59.641Z,26.70
2018-05-09T16:28:28.057Z,26.80
2018-05-09T16:30:56.466Z,28.26
2018-05-09T16:33:24.900Z,27.17
2018-05-09T16:35:53.257Z,27.83
2018-05-09T16:38:22.446Z,29.49
2018-05-09T16:40:50.817Z,30.07
2018-05-09T16:43:19.193Z,31.51
2018-05-09T16:45:47.578Z,30.78
2018-05-09T16:48:15.969Z,31.34
2018-05-09T16:50:44.354Z,31.59
2018-05-09T16:53:12.836Z,32.90
2018-05-09T16:55:41.160Z,32.28
2018-05-09T16:58:09.561Z,32.62
2018-05-09T17:00:37.952Z,31.78
2018-05-09T17:03:07.109Z,32.24
2018-05-09T17:05:35.598Z,32.29
2018-05-09T17:08:03.918Z,32.87
2018-05-09T17:10:32.332Z,32.40
2018-05-09T17:13:00.887Z,32.26
2018-05-09T17:15:29.277Z,31.55
2018-05-09T17:17:58.422Z,31.72
2018-05-09T17:20:26.825Z,31.92
2018-05-09T17:22:55.231Z,32.27
2018-05-09T17:25:23.650Z,31.82
2018-05-09T17:27:52.017Z,32.84
2018-05-09T17:32:52.474Z,33.00
2018-05-09T17:35:21.630Z,34.51
2018-05-09T17:37:50.067Z,34.66
2018-05-09T17:40:18.625Z,34.14
2018-05-09T17:42:47.903Z,33.57
2018-05-09T17:45:16.269Z,33.65
2018-05-09T17:47:44.685Z,33.60
2018-05-09T17:50:13.189Z,34.43
2018-05-09T17:52:41.563Z,34.29
2018-05-09T17:55:09.953Z,34.53
2018-05-09T17:57:39.089Z,34.73
2018-05-09T18:00:07.576Z,34.81
2018-05-09T18:02:35.951Z,35.44
2018-05-09T18:05:04.399Z,35.95
2018-05-09T18:07:32.774Z,35.85
2018-05-09T18:10:01.181Z,36.91
2018-05-09T18:12:30.606Z,37.50
2018-05-09T18:14:58.925Z,37.87
2018-05-09T18:17:27.314Z,38.53
2018-05-09T18:19:55.706Z,39.50
2018-05-09T18:22:24.169Z,40.15
2018-05-09T18:24:52.620Z,40.04
2018-05-09T18:27:21.021Z,40.30
2018-05-09T18:29:49.387Z,40.82
2018-05-09T18:32:17.788Z,41.34
2018-05-09T18:34:46.247Z,43.03
2018-05-09T18:37:15.382Z,41.93
2018-05-09T18:39:43.782Z,41.92
2018-05-09T18:42:12.181Z,42.88
2018-05-09T18:44:40.569Z,43.61
2018-05-09T18:47:08.952Z,44.25
2018-05-09T18:49:37.367Z,45.05
2018-05-09T18:52:06.525Z,45.11
2018-05-09T18:54:34.917Z,45.27
2018-05-09T18:57:03.297Z,45.85
2018-05-09T18:59:31.775Z,45.58
2018-05-09T19:02:00.088Z,46.03
2018-05-09T19:04:29.262Z,46.27
2018-05-09T19:06:57.667Z,46.62
2018-05-09T19:09:26.845Z,46.82
2018-05-09T19:11:55.340Z,47.41
2018-05-09T19:14:23.743Z,47.39
2018-05-09T19:16:52.906Z,47.81
2018-05-09T19:19:21.283Z,48.19
2018-05-09T19:21:49.660Z,47.83
2018-05-09T19:24:18.092Z,48.21
2018-05-09T19:26:47.254Z,48.14
2018-05-09T19:29:15.654Z,48.92
2018-05-09T19:31:44.834Z,48.59
2018-05-09T19:34:13.256Z,48.64
2018-05-09T19:36:41.669Z,48.25
2018-05-09T19:39:10.110Z,47.37
2018-05-09T19:41:38.547Z,47.55
2018-05-09T19:44:06.880Z,48.57
2018-05-09T19:46:35.255Z,49.20
2018-05-09T19:49:03.652Z,49.50
2018-05-09T19:51:32.958Z,49.13
2018-05-09T19:54:01.376Z,49.37
2018-05-09T19:56:29.860Z,49.21
2018-05-09T19:58:58.253Z,50.43
2018-05-09T20:01:26.667Z,49.61
2018-05-09T20:03:55.061Z,49.94
2018-05-09T20:06:23.498Z,49.97
2018-05-09T20:08:51.899Z,50.42
2018-05-09T20:11:20.294Z,50.87
2018-05-09T20:13:48.798Z,50.93
2018-05-09T20:16:17.139Z,51.08
2018-05-09T20:18:45.537Z,51.34
2018-05-09T20:21:13.984Z,51.03
2018-05-09T20:23:43.186Z,50.79
2018-05-09T20:26:11.562Z,51.77
2018-05-09T20:28:46.125Z,52.26
2018-05-09T20:31:37.985Z,52.38
2018-05-09T20:34:07.042Z,52.77
2018-05-09T20:36:35.523Z,53.43
2018-05-09T20:39:03.900Z,53.61
2018-05-09T20:41:32.325Z,53.48
2018-05-09T20:44:00.714Z,53.47
2018-05-09T20:46:29.127Z,53.55
2018-05-09T20:48:58.277Z,53.83
2018-05-09T20:51:44.370Z,52.62
2018-05-09T20:54:12.782Z,51.62
2018-05-09T20:56:41.147Z,51.96
2018-05-09T20:59:09.542Z,52.30
2018-05-09T21:01:49.541Z,52.90
2018-05-09T21:04:17.938Z,54.28
2018-05-09T21:06:46.318Z,54.67
2018-05-09T21:09:14.737Z,54.93
2018-05-09T21:14:48.453Z,55.55
2018-05-09T21:17:16.852Z,56.57
2018-05-09T21:19:46.049Z,56.62
2018-05-09T21:22:15.200Z,57.69
2018-05-09T21:24:43.607Z,57.84
2018-05-09T21:27:12.161Z,57.26
2018-05-09T21:29:40.503Z,57.34
2018-05-09T21:32:09.677Z,57.97
2018-05-09T21:34:38.054Z,58.34
2018-05-09T21:37:06.432Z,58.42
2018-05-09T21:39:34.802Z,58.05
2018-05-09T21:42:03.208Z,58.30
2018-05-09T21:44:31.630Z,58.71
2018-05-09T21:47:00.785Z,59.55
2018-05-09T21:49:29.203Z,58.68
2018-05-09T21:51:58.349Z,59.51
2018-05-09T21:54:26.769Z,59.42
2018-05-09T21:56:55.153Z,59.29
2018-05-09T21:59:23.544Z,59.22
2018-05-09T22:01:51.943Z,59.98
2018-05-09T22:04:21.124Z,59.92
2018-05-09T22:06:49.513Z,60.41
2018-05-09T22:09:18.778Z,60.35
2018-05-09T22:11:47.157Z,60.50
2018-05-09T22:14:15.574Z,60.29
2018-05-09T22:16:43.987Z,60.55
2018-05-09T22:19:13.162Z,61.42
2018-05-09T22:21:41.576Z,62.12
2018-05-09T22:24:10.051Z,61.99
2018-05-09T22:26:39.223Z,61.96
2018-05-09T22:29:07.628Z,62.15
2018-05-09T22:31:36.055Z,62.25
2018-05-09T22:34:04.520Z,61.50
2018-05-09T22:36:32.931Z,62.38
2018-05-09T22:39:01.334Z,62.20
2018-05-09T22:41:30.502Z,61.23
2018-05-09T22:43:58.977Z,60.42
2018-05-09T22:46:27.387Z,60.46
2018-05-09T22:48:55.816Z,61.78
2018-05-09T22:51:24.201Z,61.25
2018-05-09T22:53:53.349Z,61.72
2018-05-09T22:56:21.731Z,61.57
2018-05-09T22:58:50.147Z,61.96
2018-05-09T23:01:18.532Z,61.72
2018-05-09T23:03:46.958Z,62.51
2018-05-09T23:06:15.347Z,62.65
2018-05-09T23:08:43.778Z,62.62
2018-05-09T23:11:12.179Z,62.55
2018-05-09T23:13:41.019Z,63.10
2018-05-09T23:16:09.418Z,63.53
2018-05-09T23:18:37.810Z,63.02
2018-05-09T23:21:06.366Z,62.96
2018-05-09T23:23:34.758Z,64.02
2018-05-09T23:26:03.183Z,64.20
2018-05-09T23:28:31.604Z,64.32
2018-05-09T23:31:00.023Z,64.55
2018-05-09T23:33:28.435Z,65.08
2018-05-09T23:35:56.834Z,64.64
2018-05-09T23:38:25.994Z,64.85
2018-05-09T23:40:54.399Z,64.81
2018-05-09T23:43:22.822Z,64.71
2018-05-09T23:45:51.197Z,65.90
2018-05-09T23:48:20.359Z,65.13
2018-05-09T23:50:49.518Z,65.81
2018-05-09T23:53:17.937Z,66.52
2018-05-09T23:55:46.447Z,66.75
2018-05-09T23:58:14.727Z,67.90
